sensor_id;sensor_type;location;lat;lon;timestamp;pressure;altitude;pressure_sealevel;temperature;humidity
9764;BME280;4921;43.214;27.936;2023-12-04T00:01:45;101617.13;;;8.30;100.00
9764;BME280;4921;43.214;27.936;2023-12-04T00:04:13;101606.81;;;8.27;100.00
9764;BME280;4921;43.214;27.936;2023-12-04T00:06:41;101609.44;;;8.27;100.00
9764;BME280;4921;43.214;27.936;2023-12-04T00:09:09;101605.91;;;8.11;100.00
9764;BME280;4921;43.214;27.936;2023-12-04T00:11:36;101600.84;;;8.08;100.00
9764;BME280;4921;43.214;27.936;2023-12-04T00:14:03;101605.38;;;8.05;100.00
9764;BME280;4921;43.214;27.936;2023-12-04T00:16:33;101604.38;;;8.07;100.00
9764;BME280;4921;43.214;27.936;2023-12-04T00:19:00;101595.38;;;8.13;100.00
9764;BME280;4921;43.214;27.936;2023-12-04T00:21:27;101610.38;;;8.09;100.00
9764;BME280;4921;43.214;27.936;2023-12-04T00:23:54;101596.53;;;8.07;100.00
9764;BME280;4921;43.214;27.936;2023-12-04T00:26:23;101619.34;;;8.05;100.00
9764;BME280;4921;43.214;27.936;2023-12-04T00:28:50;101622.44;;;7.96;100.00
9764;BME280;4921;43.214;27.936;2023-12-04T00:31:17;101647.16;;;8.08;100.00
9764;BME280;4921;43.214;27.936;2023-12-04T00:33:45;101667.47;;;8.03;100.00
9764;BME280;4921;43.214;27.936;2023-12-04T00:36:13;101682.53;;;7.99;100.00
9764;BME280;4921;43.214;27.936;2023-12-04T00:38:40;101684.38;;;7.97;100.00
9764;BME280;4921;43.214;27.936;2023-12-04T00:41:07;101695.22;;;7.90;100.00
9764;BME280;4921;43.214;27.936;2023-12-04T00:43:36;101701.94;;;7.95;100.00
9764;BME280;4921;43.214;27.936;2023-12-04T00:46:03;101706.03;;;7.84;100.00
9764;BME280;4921;43.214;27.936;2023-12-04T00:48:30;101716.13;;;7.91;100.00
9764;BME280;4921;43.214;27.936;2023-12-04T00:50:57;101684.53;;;7.94;100.00
9764;BME280;4921;43.214;27.936;2023-12-04T00:53:25;101665.13;;;7.81;100.00
9764;BME280;4921;43.214;27.936;2023-12-04T00:55:52;101671.91;;;7.85;100.00
9764;BME280;4921;43.214;27.936;2023-12-04T00:58:19;101670.69;;;7.75;100.00
9764;BME280;4921;43.214;27.936;2023-12-04T01:00:47;101668.59;;;7.82;100.00
9764;BME280;4921;43.214;27.936;2023-12-04T01:03:17;101666.84;;;7.82;100.00
9764;BME280;4921;43.214;27.936;2023-12-04T01:05:44;101667.59;;;7.84;100.00
9764;BME280;4921;43.214;27.936;2023-12-04T01:08:11;101667.75;;;7.81;100.00
9764;BME280;4921;43.214;27.936;2023-12-04T01:10:39;101674.06;;;7.77;100.00
9764;BME280;4921;43.214;27.936;2023-12-04T01:13:06;101673.97;;;7.79;100.00
9764;BME280;4921;43.214;27.936;2023-12-04T01:15:33;101680.72;;;7.67;100.00
9764;BME280;4921;43.214;27.936;2023-12-04T01:18:02;101697.50;;;7.63;100.00
9764;BME280;4921;43.214;27.936;2023-12-04T01:20:29;101695.69;;;7.46;100.00
9764;BME280;4921;43.214;27.936;2023-12-04T01:22:56;101699.06;;;7.31;100.00
9764;BME280;4921;43.214;27.936;2023-12-04T01:25:23;101716.59;;;7.48;100.00
9764;BME280;4921;43.214;27.936;2023-12-04T01:27:50;101735.03;;;7.45;100.00
9764;BME280;4921;43.214;27.936;2023-12-04T01:30:17;101759.53;;;7.44;100.00
9764;BME280;4921;43.214;27.936;2023-12-04T01:32:44;101752.44;;;7.46;100.00
9764;BME280;4921;43.214;27.936;2023-12-04T01:35:13;101760.00;;;7.33;100.00
9764;BME280;4921;43.214;27.936;2023-12-04T01:37:40;101766.13;;;7.15;100.00
9764;BME280;4921;43.214;27.936;2023-12-04T01:40:08;101770.00;;;7.25;100.00
9764;BME280;4921;43.214;27.936;2023-12-04T01:42:35;101771.38;;;7.15;100.00
9764;BME280;4921;43.214;27.936;2023-12-04T01:45:03;101762.31;;;7.04;100.00
9764;BME280;4921;43.214;27.936;2023-12-04T01:47:33;101768.97;;;7.11;100.00
9764;BME280;4921;43.214;27.936;2023-12-04T01:50:00;101771.91;;;7.03;100.00
9764;BME280;4921;43.214;27.936;2023-12-04T01:52:29;101778.38;;;6.96;100.00
9764;BME280;4921;43.214;27.936;2023-12-04T01:54:57;101779.47;;;6.90;100.00
9764;BME280;4921;43.214;27.936;2023-12-04T01:57:24;101783.97;;;7.07;100.00
9764;BME280;4921;43.214;27.936;2023-12-04T01:59:52;101797.03;;;7.07;100.00
9764;BME280;4921;43.214;27.936;2023-12-04T02:02:19;101798.09;;;7.22;100.00
9764;BME280;4921;43.214;27.936;2023-12-04T02:04:46;101805.50;;;7.31;100.00
9764;BME280;4921;43.214;27.936;2023-12-04T02:07:13;101802.84;;;7.14;100.00
9764;BME280;4921;43.214;27.936;2023-12-04T02:09:42;101803.38;;;7.02;100.00
9764;BME280;4921;43.214;27.936;2023-12-04T02:12:09;101808.03;;;6.95;100.00
9764;BME280;4921;43.214;27.936;2023-12-04T02:14:37;101811.50;;;6.96;100.00
9764;BME280;4921;43.214;27.936;2023-12-04T02:17:05;101803.59;;;6.78;100.00
9764;BME280;4921;43.214;27.936;2023-12-04T02:19:32;101796.16;;;6.69;100.00
9764;BME280;4921;43.214;27.936;2023-12-04T02:22:00;101775.88;;;6.74;100.00
9764;BME280;4921;43.214;27.936;2023-12-04T02:24:29;101778.28;;;6.79;100.00
9764;BME280;4921;43.214;27.936;2023-12-04T02:27:06;101794.22;;;6.73;100.00
9764;BME280;4921;43.214;27.936;2023-12-04T02:29:40;101795.38;;;6.67;100.00
9764;BME280;4921;43.214;27.936;2023-12-04T02:32:11;101807.53;;;6.68;100.00
9764;BME280;4921;43.214;27.936;2023-12-04T02:34:43;101826.94;;;6.81;100.00
9764;BME280;4921;43.214;27.936;2023-12-04T02:37:12;101833.78;;;6.85;100.00
9764;BME280;4921;43.214;27.936;2023-12-04T02:39:41;101844.91;;;6.70;100.00
9764;BME280;4921;43.214;27.936;2023-12-04T02:42:09;101861.84;;;6.62;100.00
9764;BME280;4921;43.214;27.936;2023-12-04T02:44:37;101858.28;;;6.63;100.00
9764;BME280;4921;43.214;27.936;2023-12-04T02:47:05;101871.69;;;6.55;100.00
9764;BME280;4921;43.214;27.936;2023-12-04T02:49:32;101873.38;;;6.56;100.00
9764;BME280;4921;43.214;27.936;2023-12-04T02:51:59;101877.75;;;6.56;100.00
9764;BME280;4921;43.214;27.936;2023-12-04T02:54:26;101871.56;;;6.38;100.00
9764;BME280;4921;43.214;27.936;2023-12-04T02:56:54;101867.16;;;6.39;100.00
9764;BME280;4921;43.214;27.936;2023-12-04T02:59:21;101873.84;;;6.46;100.00
9764;BME280;4921;43.214;27.936;2023-12-04T03:01:48;101873.13;;;6.42;100.00
9764;BME280;4921;43.214;27.936;2023-12-04T03:04:16;101877.06;;;6.52;100.00
9764;BME280;4921;43.214;27.936;2023-12-04T03:06:43;101891.47;;;6.61;100.00
9764;BME280;4921;43.214;27.936;2023-12-04T03:09:10;101888.34;;;6.53;100.00
9764;BME280;4921;43.214;27.936;2023-12-04T03:11:39;101888.34;;;6.33;100.00
9764;BME280;4921;43.214;27.936;2023-12-04T03:14:08;101882.59;;;6.25;100.00
9764;BME280;4921;43.214;27.936;2023-12-04T03:16:35;101898.13;;;6.28;100.00
9764;BME280;4921;43.214;27.936;2023-12-04T03:19:02;101893.75;;;6.28;100.00
9764;BME280;4921;43.214;27.936;2023-12-04T03:21:29;101884.88;;;6.32;100.00
9764;BME280;4921;43.214;27.936;2023-12-04T03:23:56;101876.31;;;6.29;100.00
9764;BME280;4921;43.214;27.936;2023-12-04T03:26:23;101880.03;;;6.43;100.00
9764;BME280;4921;43.214;27.936;2023-12-04T03:28:50;101882.25;;;6.32;100.00
9764;BME280;4921;43.214;27.936;2023-12-04T03:31:18;101879.00;;;6.27;100.00
9764;BME280;4921;43.214;27.936;2023-12-04T03:33:45;101885.31;;;6.22;100.00
9764;BME280;4921;43.214;27.936;2023-12-04T03:36:13;101887.13;;;6.20;100.00
9764;BME280;4921;43.214;27.936;2023-12-04T03:38:40;101890.88;;;6.14;100.00
9764;BME280;4921;43.214;27.936;2023-12-04T03:41:13;101893.13;;;6.01;100.00
9764;BME280;4921;43.214;27.936;2023-12-04T03:43:40;101895.84;;;5.98;100.00
9764;BME280;4921;43.214;27.936;2023-12-04T03:46:08;101911.16;;;6.07;100.00
9764;BME280;4921;43.214;27.936;2023-12-04T03:48:36;101913.41;;;5.95;100.00
9764;BME280;4921;43.214;27.936;2023-12-04T03:51:05;101912.19;;;5.80;100.00
9764;BME280;4921;43.214;27.936;2023-12-04T03:53:32;101922.66;;;6.02;100.00
9764;BME280;4921;43.214;27.936;2023-12-04T03:55:59;101904.72;;;5.94;100.00
9764;BME280;4921;43.214;27.936;2023-12-04T03:58:26;101924.13;;;6.09;100.00
9764;BME280;4921;43.214;27.936;2023-12-04T04:00:53;101924.47;;;6.01;100.00
9764;BME280;4921;43.214;27.936;2023-12-04T04:03:20;101913.94;;;6.03;100.00
9764;BME280;4921;43.214;27.936;2023-12-04T04:05:49;101937.25;;;6.07;100.00
9764;BME280;4921;43.214;27.936;2023-12-04T04:08:16;101936.72;;;5.99;100.00
9764;BME280;4921;43.214;27.936;2023-12-04T04:10:43;101942.78;;;6.00;100.00
9764;BME280;4921;43.214;27.936;2023-12-04T04:13:11;101944.56;;;5.99;100.00
9764;BME280;4921;43.214;27.936;2023-12-04T04:15:38;101945.09;;;6.07;100.00
9764;BME280;4921;43.214;27.936;2023-12-04T04:18:05;101936.06;;;5.94;100.00
9764;BME280;4921;43.214;27.936;2023-12-04T04:20:32;101947.69;;;5.86;100.00
9764;BME280;4921;43.214;27.936;2023-12-04T04:23:00;101956.00;;;5.95;100.00
9764;BME280;4921;43.214;27.936;2023-12-04T04:25:28;101949.41;;;6.08;100.00
9764;BME280;4921;43.214;27.936;2023-12-04T04:27:55;101945.34;;;6.01;100.00
9764;BME280;4921;43.214;27.936;2023-12-04T04:30:22;101949.16;;;5.93;100.00
9764;BME280;4921;43.214;27.936;2023-12-04T04:32:49;101941.63;;;5.85;100.00
9764;BME280;4921;43.214;27.936;2023-12-04T04:35:16;101952.78;;;5.89;100.00
9764;BME280;4921;43.214;27.936;2023-12-04T04:37:43;101951.66;;;5.73;100.00
9764;BME280;4921;43.214;27.936;2023-12-04T04:40:12;101949.22;;;5.91;100.00
9764;BME280;4921;43.214;27.936;2023-12-04T04:42:39;101945.81;;;5.89;100.00
9764;BME280;4921;43.214;27.936;2023-12-04T04:45:07;101944.91;;;5.90;100.00
9764;BME280;4921;43.214;27.936;2023-12-04T04:47:34;101947.16;;;5.76;100.00
9764;BME280;4921;43.214;27.936;2023-12-04T04:50:01;101953.81;;;5.85;100.00
9764;BME280;4921;43.214;27.936;2023-12-04T04:52:28;101962.41;;;5.88;100.00
9764;BME280;4921;43.214;27.936;2023-12-04T04:54:55;101960.81;;;5.84;100.00
9764;BME280;4921;43.214;27.936;2023-12-04T04:57:24;101962.56;;;5.84;100.00
9764;BME280;4921;43.214;27.936;2023-12-04T04:59:51;101967.06;;;5.79;100.00
9764;BME280;4921;43.214;27.936;2023-12-04T05:02:18;101964.28;;;5.83;100.00
9764;BME280;4921;43.214;27.936;2023-12-04T05:04:45;101953.91;;;5.82;100.00
9764;BME280;4921;43.214;27.936;2023-12-04T05:07:12;101973.50;;;5.93;100.00
9764;BME280;4921;43.214;27.936;2023-12-04T05:09:39;101958.25;;;6.04;100.00
9764;BME280;4921;43.214;27.936;2023-12-04T05:12:07;101963.72;;;5.98;100.00
9764;BME280;4921;43.214;27.936;2023-12-04T05:14:35;101967.22;;;5.97;100.00
9764;BME280;4921;43.214;27.936;2023-12-04T05:17:03;101949.13;;;5.71;100.00
9764;BME280;4921;43.214;27.936;2023-12-04T05:19:30;101969.69;;;5.79;100.00
9764;BME280;4921;43.214;27.936;2023-12-04T05:21:57;101974.84;;;5.80;100.00
9764;BME280;4921;43.214;27.936;2023-12-04T05:24:24;101977.88;;;5.93;100.00
9764;BME280;4921;43.214;27.936;2023-12-04T05:26:51;101979.50;;;5.95;100.00
9764;BME280;4921;43.214;27.936;2023-12-04T05:29:18;101975.69;;;6.04;100.00
9764;BME280;4921;43.214;27.936;2023-12-04T05:31:46;101979.94;;;6.06;100.00
9764;BME280;4921;43.214;27.936;2023-12-04T05:34:14;101978.72;;;6.15;100.00
9764;BME280;4921;43.214;27.936;2023-12-04T05:36:41;101973.81;;;6.07;100.00
9764;BME280;4921;43.214;27.936;2023-12-04T05:39:08;101964.88;;;6.13;100.00
9764;BME280;4921;43.214;27.936;2023-12-04T05:41:35;101971.81;;;6.14;100.00
9764;BME280;4921;43.214;27.936;2023-12-04T05:44:03;101977.88;;;5.93;100.00
9764;BME280;4921;43.214;27.936;2023-12-04T05:46:30;101976.97;;;5.94;100.00
9764;BME280;4921;43.214;27.936;2023-12-04T05:48:59;101978.84;;;5.90;100.00
9764;BME280;4921;43.214;27.936;2023-12-04T05:51:26;101965.84;;;6.10;100.00
9764;BME280;4921;43.214;27.936;2023-12-04T05:53:54;101974.72;;;6.06;100.00
9764;BME280;4921;43.214;27.936;2023-12-04T05:56:21;101966.59;;;6.14;100.00
9764;BME280;4921;43.214;27.936;2023-12-04T05:58:48;101974.53;;;6.11;100.00
9764;BME280;4921;43.214;27.936;2023-12-04T06:01:15;101969.06;;;6.17;100.00
9764;BME280;4921;43.214;27.936;2023-12-04T06:03:42;101977.41;;;6.05;100.00
9764;BME280;4921;43.214;27.936;2023-12-04T06:06:11;101984.69;;;5.97;100.00
9764;BME280;4921;43.214;27.936;2023-12-04T06:08:38;101987.78;;;6.06;100.00
9764;BME280;4921;43.214;27.936;2023-12-04T06:11:05;101978.28;;;6.04;100.00
9764;BME280;4921;43.214;27.936;2023-12-04T06:13:32;101984.50;;;6.01;100.00
9764;BME280;4921;43.214;27.936;2023-12-04T06:15:58;101989.69;;;6.25;100.00
9764;BME280;4921;43.214;27.936;2023-12-04T06:18:25;101986.09;;;6.27;100.00
9764;BME280;4921;43.214;27.936;2023-12-04T06:20:52;101992.47;;;6.42;100.00
9764;BME280;4921;43.214;27.936;2023-12-04T06:23:21;101986.31;;;6.43;100.00
9764;BME280;4921;43.214;27.936;2023-12-04T06:25:49;101994.16;;;6.43;100.00
9764;BME280;4921;43.214;27.936;2023-12-04T06:28:17;101986.53;;;6.38;100.00
9764;BME280;4921;43.214;27.936;2023-12-04T06:30:44;102002.13;;;6.40;100.00
9764;BME280;4921;43.214;27.936;2023-12-04T06:33:12;102015.00;;;6.44;100.00
9764;BME280;4921;43.214;27.936;2023-12-04T06:35:41;102018.66;;;6.40;100.00
9764;BME280;4921;43.214;27.936;2023-12-04T06:38:08;102027.75;;;6.30;100.00
9764;BME280;4921;43.214;27.936;2023-12-04T06:40:39;102013.25;;;6.45;100.00
9764;BME280;4921;43.214;27.936;2023-12-04T06:43:07;102020.06;;;6.49;100.00
9764;BME280;4921;43.214;27.936;2023-12-04T06:45:34;102028.44;;;6.57;100.00
9764;BME280;4921;43.214;27.936;2023-12-04T06:48:02;102049.25;;;6.58;100.00
9764;BME280;4921;43.214;27.936;2023-12-04T06:50:29;102046.03;;;6.52;100.00
9764;BME280;4921;43.214;27.936;2023-12-04T06:52:56;102043.59;;;6.47;100.00
9764;BME280;4921;43.214;27.936;2023-12-04T06:55:23;102048.00;;;6.47;100.00
9764;BME280;4921;43.214;27.936;2023-12-04T06:57:52;102055.72;;;6.50;100.00
9764;BME280;4921;43.214;27.936;2023-12-04T07:00:19;102063.97;;;6.39;100.00
9764;BME280;4921;43.214;27.936;2023-12-04T07:02:46;102050.19;;;6.36;100.00
9764;BME280;4921;43.214;27.936;2023-12-04T07:05:13;102050.63;;;6.47;100.00
9764;BME280;4921;43.214;27.936;2023-12-04T07:07:40;102054.75;;;6.52;100.00
9764;BME280;4921;43.214;27.936;2023-12-04T07:10:08;102049.50;;;6.52;100.00
9764;BME280;4921;43.214;27.936;2023-12-04T07:12:39;102050.00;;;6.40;100.00
9764;BME280;4921;43.214;27.936;2023-12-04T07:15:08;102052.56;;;6.42;100.00
9764;BME280;4921;43.214;27.936;2023-12-04T07:17:36;102054.03;;;6.49;100.00
9764;BME280;4921;43.214;27.936;2023-12-04T07:20:03;102054.06;;;6.47;100.00
9764;BME280;4921;43.214;27.936;2023-12-04T07:22:31;102050.72;;;6.65;100.00
9764;BME280;4921;43.214;27.936;2023-12-04T07:24:58;102051.63;;;6.64;100.00
9764;BME280;4921;43.214;27.936;2023-12-04T07:27:25;102059.59;;;6.61;100.00
9764;BME280;4921;43.214;27.936;2023-12-04T07:29:53;102051.84;;;6.60;100.00
9764;BME280;4921;43.214;27.936;2023-12-04T07:32:21;102045.75;;;6.59;100.00
9764;BME280;4921;43.214;27.936;2023-12-04T07:34:48;102060.81;;;6.53;100.00
9764;BME280;4921;43.214;27.936;2023-12-04T07:37:15;102066.47;;;6.42;100.00
9764;BME280;4921;43.214;27.936;2023-12-04T07:39:43;102066.31;;;6.47;100.00
9764;BME280;4921;43.214;27.936;2023-12-04T07:42:11;102067.50;;;6.38;100.00
9764;BME280;4921;43.214;27.936;2023-12-04T07:44:38;102071.75;;;6.41;100.00
9764;BME280;4921;43.214;27.936;2023-12-04T07:47:05;102074.25;;;6.44;100.00
9764;BME280;4921;43.214;27.936;2023-12-04T07:49:34;102076.97;;;6.41;100.00
9764;BME280;4921;43.214;27.936;2023-12-04T07:52:01;102077.66;;;6.46;100.00
9764;BME280;4921;43.214;27.936;2023-12-04T07:54:29;102078.16;;;6.55;100.00
9764;BME280;4921;43.214;27.936;2023-12-04T07:56:56;102068.78;;;6.50;100.00
9764;BME280;4921;43.214;27.936;2023-12-04T07:59:23;102076.25;;;6.59;100.00
9764;BME280;4921;43.214;27.936;2023-12-04T08:01:50;102070.13;;;6.38;100.00
9764;BME280;4921;43.214;27.936;2023-12-04T08:04:17;102079.22;;;6.50;100.00
9764;BME280;4921;43.214;27.936;2023-12-04T08:06:45;102078.88;;;6.59;100.00
9764;BME280;4921;43.214;27.936;2023-12-04T08:09:12;102076.53;;;6.51;100.00
9764;BME280;4921;43.214;27.936;2023-12-04T08:11:40;102080.34;;;6.44;100.00
9764;BME280;4921;43.214;27.936;2023-12-04T08:14:07;102079.47;;;6.44;100.00
9764;BME280;4921;43.214;27.936;2023-12-04T08:16:34;102098.91;;;6.58;100.00
9764;BME280;4921;43.214;27.936;2023-12-04T08:19:01;102092.22;;;6.51;100.00
9764;BME280;4921;43.214;27.936;2023-12-04T08:21:28;102087.31;;;6.44;100.00
9764;BME280;4921;43.214;27.936;2023-12-04T08:23:56;102091.69;;;6.43;100.00
9764;BME280;4921;43.214;27.936;2023-12-04T08:26:24;102103.19;;;6.61;100.00
9764;BME280;4921;43.214;27.936;2023-12-04T08:28:51;102100.03;;;6.53;100.00
9764;BME280;4921;43.214;27.936;2023-12-04T08:31:19;102105.09;;;6.56;100.00
9764;BME280;4921;43.214;27.936;2023-12-04T08:33:46;102098.38;;;6.50;100.00
9764;BME280;4921;43.214;27.936;2023-12-04T08:36:13;102094.97;;;6.48;100.00
9764;BME280;4921;43.214;27.936;2023-12-04T08:38:41;102094.19;;;6.46;100.00
9764;BME280;4921;43.214;27.936;2023-12-04T08:41:09;102103.06;;;6.42;100.00
9764;BME280;4921;43.214;27.936;2023-12-04T08:43:37;102092.94;;;6.33;100.00
9764;BME280;4921;43.214;27.936;2023-12-04T08:46:04;102086.69;;;6.37;100.00
9764;BME280;4921;43.214;27.936;2023-12-04T08:48:31;102091.56;;;6.46;100.00
9764;BME280;4921;43.214;27.936;2023-12-04T08:50:58;102090.78;;;6.66;100.00
9764;BME280;4921;43.214;27.936;2023-12-04T08:53:25;102088.19;;;6.66;100.00
9764;BME280;4921;43.214;27.936;2023-12-04T08:55:52;102093.09;;;6.73;100.00
9764;BME280;4921;43.214;27.936;2023-12-04T08:58:21;102089.44;;;6.77;100.00
9764;BME280;4921;43.214;27.936;2023-12-04T09:00:48;102083.75;;;6.68;100.00
9764;BME280;4921;43.214;27.936;2023-12-04T09:03:15;102086.00;;;6.77;100.00
9764;BME280;4921;43.214;27.936;2023-12-04T09:05:42;102088.47;;;6.80;100.00
9764;BME280;4921;43.214;27.936;2023-12-04T09:08:10;102089.56;;;6.74;100.00
9764;BME280;4921;43.214;27.936;2023-12-04T09:10:37;102102.56;;;6.76;100.00
9764;BME280;4921;43.214;27.936;2023-12-04T09:13:04;102099.22;;;6.94;100.00
9764;BME280;4921;43.214;27.936;2023-12-04T09:15:33;102100.50;;;6.84;100.00
9764;BME280;4921;43.214;27.936;2023-12-04T09:18:00;102091.56;;;6.68;100.00
9764;BME280;4921;43.214;27.936;2023-12-04T09:20:27;102085.59;;;6.64;100.00
9764;BME280;4921;43.214;27.936;2023-12-04T09:22:54;102076.88;;;6.65;100.00
9764;BME280;4921;43.214;27.936;2023-12-04T09:25:21;102088.28;;;6.84;100.00
9764;BME280;4921;43.214;27.936;2023-12-04T09:27:48;102093.41;;;6.87;100.00
9764;BME280;4921;43.214;27.936;2023-12-04T09:30:15;102084.28;;;6.76;100.00
9764;BME280;4921;43.214;27.936;2023-12-04T09:32:44;102090.28;;;6.78;100.00
9764;BME280;4921;43.214;27.936;2023-12-04T09:35:11;102082.06;;;6.87;100.00
9764;BME280;4921;43.214;27.936;2023-12-04T09:37:38;102086.25;;;6.91;100.00
9764;BME280;4921;43.214;27.936;2023-12-04T09:40:06;102081.63;;;6.98;100.00
9764;BME280;4921;43.214;27.936;2023-12-04T09:42:34;102074.22;;;6.87;100.00
9764;BME280;4921;43.214;27.936;2023-12-04T09:45:01;102086.19;;;6.92;100.00
9764;BME280;4921;43.214;27.936;2023-12-04T09:47:29;102081.38;;;6.83;100.00
9764;BME280;4921;43.214;27.936;2023-12-04T09:50:00;102071.63;;;6.87;100.00
9764;BME280;4921;43.214;27.936;2023-12-04T09:52:27;102073.53;;;7.04;100.00
9764;BME280;4921;43.214;27.936;2023-12-04T09:54:54;102077.13;;;7.01;100.00
9764;BME280;4921;43.214;27.936;2023-12-04T09:57:23;102074.75;;;6.95;100.00
9764;BME280;4921;43.214;27.936;2023-12-04T09:59:51;102069.72;;;6.90;100.00
9764;BME280;4921;43.214;27.936;2023-12-04T10:02:18;102048.72;;;6.72;100.00
9764;BME280;4921;43.214;27.936;2023-12-04T10:04:47;102067.66;;;6.99;100.00
9764;BME280;4921;43.214;27.936;2023-12-04T10:07:16;102067.44;;;7.03;100.00
9764;BME280;4921;43.214;27.936;2023-12-04T10:09:44;102065.38;;;7.11;100.00
9764;BME280;4921;43.214;27.936;2023-12-04T10:12:11;102063.59;;;7.12;100.00
9764;BME280;4921;43.214;27.936;2023-12-04T10:14:38;102045.47;;;6.87;100.00
9764;BME280;4921;43.214;27.936;2023-12-04T10:17:14;102048.09;;;6.87;100.00
9764;BME280;4921;43.214;27.936;2023-12-04T10:19:43;102044.84;;;7.02;100.00
9764;BME280;4921;43.214;27.936;2023-12-04T10:22:10;102059.59;;;7.03;100.00
9764;BME280;4921;43.214;27.936;2023-12-04T10:24:41;102060.53;;;7.02;100.00
9764;BME280;4921;43.214;27.936;2023-12-04T10:27:09;102062.34;;;7.00;100.00
9764;BME280;4921;43.214;27.936;2023-12-04T10:29:42;102068.25;;;7.05;100.00
9764;BME280;4921;43.214;27.936;2023-12-04T10:32:09;102054.25;;;7.06;100.00
9764;BME280;4921;43.214;27.936;2023-12-04T10:34:37;102064.59;;;7.09;100.00
9764;BME280;4921;43.214;27.936;2023-12-04T10:37:05;102063.56;;;7.13;100.00
9764;BME280;4921;43.214;27.936;2023-12-04T10:39:47;102075.00;;;7.11;100.00
9764;BME280;4921;43.214;27.936;2023-12-04T10:42:23;102051.72;;;7.05;100.00
9764;BME280;4921;43.214;27.936;2023-12-04T10:44:51;102074.38;;;7.04;100.00
9764;BME280;4921;43.214;27.936;2023-12-04T10:47:20;102068.44;;;7.01;100.00
9764;BME280;4921;43.214;27.936;2023-12-04T10:49:49;102071.06;;;7.01;100.00
9764;BME280;4921;43.214;27.936;2023-12-04T10:52:17;102073.28;;;7.10;100.00
9764;BME280;4921;43.214;27.936;2023-12-04T10:54:46;102076.25;;;7.22;100.00
9764;BME280;4921;43.214;27.936;2023-12-04T10:57:19;102080.41;;;7.06;100.00
9764;BME280;4921;43.214;27.936;2023-12-04T10:59:48;102070.06;;;7.03;100.00
9764;BME280;4921;43.214;27.936;2023-12-04T11:02:21;102074.88;;;7.14;100.00
9764;BME280;4921;43.214;27.936;2023-12-04T11:04:50;102078.88;;;7.22;100.00
9764;BME280;4921;43.214;27.936;2023-12-04T11:07:23;102068.41;;;7.22;100.00
9764;BME280;4921;43.214;27.936;2023-12-04T11:09:55;102060.22;;;7.30;100.00
9764;BME280;4921;43.214;27.936;2023-12-04T11:12:25;102061.56;;;7.38;100.00
9764;BME280;4921;43.214;27.936;2023-12-04T11:14:59;102056.22;;;7.41;100.00
9764;BME280;4921;43.214;27.936;2023-12-04T11:17:31;102050.41;;;7.35;100.00
9764;BME280;4921;43.214;27.936;2023-12-04T11:20:07;102059.53;;;7.25;100.00
9764;BME280;4921;43.214;27.936;2023-12-04T11:22:38;102037.00;;;7.22;100.00
9764;BME280;4921;43.214;27.936;2023-12-04T11:25:08;102047.69;;;7.16;100.00
9764;BME280;4921;43.214;27.936;2023-12-04T11:27:36;102043.72;;;7.08;100.00
9764;BME280;4921;43.214;27.936;2023-12-04T11:30:04;102052.81;;;7.19;100.00
9764;BME280;4921;43.214;27.936;2023-12-04T11:32:32;102057.28;;;7.17;100.00
9764;BME280;4921;43.214;27.936;2023-12-04T11:35:12;102045.94;;;7.17;100.00
9764;BME280;4921;43.214;27.936;2023-12-04T11:37:41;102043.47;;;7.14;100.00
9764;BME280;4921;43.214;27.936;2023-12-04T11:40:13;102046.13;;;7.12;100.00
9764;BME280;4921;43.214;27.936;2023-12-04T11:42:41;102046.88;;;7.16;100.00
9764;BME280;4921;43.214;27.936;2023-12-04T11:45:09;102052.31;;;7.11;100.00
9764;BME280;4921;43.214;27.936;2023-12-04T11:47:49;102048.91;;;7.09;100.00
9764;BME280;4921;43.214;27.936;2023-12-04T11:50:16;102035.63;;;7.14;100.00
9764;BME280;4921;43.214;27.936;2023-12-04T11:52:45;102046.41;;;7.26;100.00
9764;BME280;4921;43.214;27.936;2023-12-04T11:55:16;102046.09;;;7.14;100.00
9764;BME280;4921;43.214;27.936;2023-12-04T11:57:43;102038.94;;;6.97;100.00
9764;BME280;4921;43.214;27.936;2023-12-04T12:00:19;102039.41;;;7.07;100.00
9764;BME280;4921;43.214;27.936;2023-12-04T12:03:00;102050.41;;;7.15;100.00
9764;BME280;4921;43.214;27.936;2023-12-04T12:05:28;102045.03;;;7.18;100.00
9764;BME280;4921;43.214;27.936;2023-12-04T12:07:55;102037.97;;;7.20;100.00
9764;BME280;4921;43.214;27.936;2023-12-04T12:10:25;102044.63;;;7.27;100.00
9764;BME280;4921;43.214;27.936;2023-12-04T12:12:52;102045.63;;;7.24;100.00
9764;BME280;4921;43.214;27.936;2023-12-04T12:15:19;102039.66;;;7.21;100.00
9764;BME280;4921;43.214;27.936;2023-12-04T12:17:46;102042.88;;;7.07;100.00
9764;BME280;4921;43.214;27.936;2023-12-04T12:20:14;102040.03;;;7.12;100.00
9764;BME280;4921;43.214;27.936;2023-12-04T12:22:41;102047.97;;;7.10;100.00
9764;BME280;4921;43.214;27.936;2023-12-04T12:25:10;102048.94;;;7.08;100.00
9764;BME280;4921;43.214;27.936;2023-12-04T12:27:39;102050.59;;;7.10;100.00
9764;BME280;4921;43.214;27.936;2023-12-04T12:30:07;102059.81;;;7.19;100.00
9764;BME280;4921;43.214;27.936;2023-12-04T12:32:34;102057.53;;;7.11;100.00
9764;BME280;4921;43.214;27.936;2023-12-04T12:35:02;102059.69;;;7.22;100.00
9764;BME280;4921;43.214;27.936;2023-12-04T12:37:30;102061.66;;;7.17;100.00
9764;BME280;4921;43.214;27.936;2023-12-04T12:39:57;102064.84;;;7.23;100.00
9764;BME280;4921;43.214;27.936;2023-12-04T12:42:30;102063.00;;;7.25;100.00
9764;BME280;4921;43.214;27.936;2023-12-04T12:45:05;102066.75;;;7.20;100.00
9764;BME280;4921;43.214;27.936;2023-12-04T12:47:35;102068.13;;;7.28;100.00
9764;BME280;4921;43.214;27.936;2023-12-04T12:50:03;102068.16;;;7.27;100.00
9764;BME280;4921;43.214;27.936;2023-12-04T12:52:33;102055.25;;;7.24;100.00
9764;BME280;4921;43.214;27.936;2023-12-04T12:55:00;102057.66;;;7.08;100.00
9764;BME280;4921;43.214;27.936;2023-12-04T12:57:27;102060.78;;;7.16;100.00
9764;BME280;4921;43.214;27.936;2023-12-04T12:59:55;102064.44;;;7.12;100.00
9764;BME280;4921;43.214;27.936;2023-12-04T13:02:23;102059.88;;;7.17;100.00
9764;BME280;4921;43.214;27.936;2023-12-04T13:04:50;102069.09;;;7.26;100.00